sensor_id;sensor_type;location;lat;lon;timestamp;temperature;humidity
3868;DHT22;1949;48.152;11.528;2023-11-21T00:00:21;13.70;46.70
3868;DHT22;1949;48.152;11.528;2023-11-21T00:02:47;13.70;46.50
3868;DHT22;1949;48.152;11.528;2023-11-21T00:05:14;13.70;46.70
3868;DHT22;1949;48.152;11.528;2023-11-21T00:07:41;13.70;46.80
3868;DHT22;1949;48.152;11.528;2023-11-21T00:10:08;13.60;46.70
3868;DHT22;1949;48.152;11.528;2023-11-21T00:12:34;13.60;46.90
3868;DHT22;1949;48.152;11.528;2023-11-21T00:15:00;13.60;46.80
3868;DHT22;1949;48.152;11.528;2023-11-21T00:17:27;13.60;46.90
3868;DHT22;1949;48.152;11.528;2023-11-21T00:19:53;13.60;46.90
3868;DHT22;1949;48.152;11.528;2023-11-21T00:22:20;13.50;46.80
3868;DHT22;1949;48.152;11.528;2023-11-21T00:24:46;13.40;47.00
3868;DHT22;1949;48.152;11.528;2023-11-21T00:27:12;13.40;47.20
3868;DHT22;1949;48.152;11.528;2023-11-21T00:29:39;13.30;47.20
3868;DHT22;1949;48.152;11.528;2023-11-21T00:32:06;13.30;47.30
3868;DHT22;1949;48.152;11.528;2023-11-21T00:34:32;13.30;47.40
3868;DHT22;1949;48.152;11.528;2023-11-21T00:36:58;13.40;47.40
3868;DHT22;1949;48.152;11.528;2023-11-21T00:39:24;13.40;47.40
3868;DHT22;1949;48.152;11.528;2023-11-21T00:41:51;13.40;47.40
3868;DHT22;1949;48.152;11.528;2023-11-21T00:44:18;13.40;47.50
3868;DHT22;1949;48.152;11.528;2023-11-21T00:46:44;13.50;47.60
3868;DHT22;1949;48.152;11.528;2023-11-21T00:49:10;13.50;47.40
3868;DHT22;1949;48.152;11.528;2023-11-21T00:51:37;13.50;47.30
3868;DHT22;1949;48.152;11.528;2023-11-21T00:54:03;13.50;47.30
3868;DHT22;1949;48.152;11.528;2023-11-21T00:56:29;13.50;47.40
3868;DHT22;1949;48.152;11.528;2023-11-21T00:58:55;13.40;47.40
3868;DHT22;1949;48.152;11.528;2023-11-21T01:01:22;13.40;47.60
3868;DHT22;1949;48.152;11.528;2023-11-21T01:03:48;13.40;47.50
3868;DHT22;1949;48.152;11.528;2023-11-21T01:06:15;13.40;47.50
3868;DHT22;1949;48.152;11.528;2023-11-21T01:08:41;13.40;47.50
3868;DHT22;1949;48.152;11.528;2023-11-21T01:11:07;13.40;47.50
3868;DHT22;1949;48.152;11.528;2023-11-21T01:13:34;13.40;47.60
3868;DHT22;1949;48.152;11.528;2023-11-21T01:16:01;13.30;47.50
3868;DHT22;1949;48.152;11.528;2023-11-21T01:18:27;13.30;47.50
3868;DHT22;1949;48.152;11.528;2023-11-21T01:20:54;13.20;47.40
3868;DHT22;1949;48.152;11.528;2023-11-21T01:23:20;13.10;47.50
3868;DHT22;1949;48.152;11.528;2023-11-21T01:25:46;13.10;47.70
3868;DHT22;1949;48.152;11.528;2023-11-21T01:28:12;13.10;47.80
3868;DHT22;1949;48.152;11.528;2023-11-21T01:30:37;13.10;47.90
3868;DHT22;1949;48.152;11.528;2023-11-21T01:33:03;13.00;48.00
3868;DHT22;1949;48.152;11.528;2023-11-21T01:35:29;13.10;48.20
3868;DHT22;1949;48.152;11.528;2023-11-21T01:37:55;13.10;48.10
3868;DHT22;1949;48.152;11.528;2023-11-21T01:40:20;13.20;48.10
3868;DHT22;1949;48.152;11.528;2023-11-21T01:42:46;13.20;48.10
3868;DHT22;1949;48.152;11.528;2023-11-21T01:45:13;13.20;48.00
3868;DHT22;1949;48.152;11.528;2023-11-21T01:47:39;13.20;48.10
3868;DHT22;1949;48.152;11.528;2023-11-21T01:50:07;13.30;48.10
3868;DHT22;1949;48.152;11.528;2023-11-21T01:52:37;13.30;48.00
3868;DHT22;1949;48.152;11.528;2023-11-21T01:55:05;13.20;48.00
3868;DHT22;1949;48.152;11.528;2023-11-21T01:57:37;13.20;48.00
3868;DHT22;1949;48.152;11.528;2023-11-21T02:00:03;13.20;48.00
3868;DHT22;1949;48.152;11.528;2023-11-21T02:02:47;13.20;48.00
3868;DHT22;1949;48.152;11.528;2023-11-21T02:05:17;13.20;48.00
3868;DHT22;1949;48.152;11.528;2023-11-21T02:07:47;13.20;48.20
3868;DHT22;1949;48.152;11.528;2023-11-21T02:10:14;13.20;48.20
3868;DHT22;1949;48.152;11.528;2023-11-21T02:12:41;13.20;48.00
3868;DHT22;1949;48.152;11.528;2023-11-21T02:15:09;13.20;48.00
3868;DHT22;1949;48.152;11.528;2023-11-21T02:17:43;13.20;47.80
3868;DHT22;1949;48.152;11.528;2023-11-21T02:20:21;13.20;48.00
3868;DHT22;1949;48.152;11.528;2023-11-21T02:22:53;13.20;48.10
3868;DHT22;1949;48.152;11.528;2023-11-21T02:25:30;13.20;48.20
3868;DHT22;1949;48.152;11.528;2023-11-21T02:27:57;13.20;48.10
3868;DHT22;1949;48.152;11.528;2023-11-21T02:30:23;13.20;48.10
3868;DHT22;1949;48.152;11.528;2023-11-21T02:32:51;13.20;48.10
3868;DHT22;1949;48.152;11.528;2023-11-21T02:35:20;13.30;48.20
3868;DHT22;1949;48.152;11.528;2023-11-21T02:37:47;13.30;48.10
3868;DHT22;1949;48.152;11.528;2023-11-21T02:40:14;13.30;48.10
3868;DHT22;1949;48.152;11.528;2023-11-21T02:42:44;13.30;48.20
3868;DHT22;1949;48.152;11.528;2023-11-21T02:45:10;13.30;48.20
3868;DHT22;1949;48.152;11.528;2023-11-21T02:47:39;13.30;48.30
3868;DHT22;1949;48.152;11.528;2023-11-21T02:50:05;13.30;48.30
3868;DHT22;1949;48.152;11.528;2023-11-21T02:52:34;13.30;48.30
3868;DHT22;1949;48.152;11.528;2023-11-21T02:55:01;13.30;48.20
3868;DHT22;1949;48.152;11.528;2023-11-21T02:57:26;13.30;48.10
3868;DHT22;1949;48.152;11.528;2023-11-21T02:59:52;13.30;48.30
3868;DHT22;1949;48.152;11.528;2023-11-21T03:02:18;13.30;48.30
3868;DHT22;1949;48.152;11.528;2023-11-21T03:04:46;13.30;48.40
3868;DHT22;1949;48.152;11.528;2023-11-21T03:07:15;13.20;48.40
3868;DHT22;1949;48.152;11.528;2023-11-21T03:09:41;13.30;48.40
3868;DHT22;1949;48.152;11.528;2023-11-21T03:12:06;13.30;48.50
3868;DHT22;1949;48.152;11.528;2023-11-21T03:14:32;13.30;48.50
3868;DHT22;1949;48.152;11.528;2023-11-21T03:16:58;13.30;48.30
3868;DHT22;1949;48.152;11.528;2023-11-21T03:19:24;13.30;48.30
3868;DHT22;1949;48.152;11.528;2023-11-21T03:21:51;13.30;48.30
3868;DHT22;1949;48.152;11.528;2023-11-21T03:24:18;13.20;48.20
3868;DHT22;1949;48.152;11.528;2023-11-21T03:26:45;13.10;48.20
3868;DHT22;1949;48.152;11.528;2023-11-21T03:29:13;13.10;48.40
3868;DHT22;1949;48.152;11.528;2023-11-21T03:31:39;13.10;48.40
3868;DHT22;1949;48.152;11.528;2023-11-21T03:34:05;13.00;48.30
3868;DHT22;1949;48.152;11.528;2023-11-21T03:36:31;13.00;48.60
3868;DHT22;1949;48.152;11.528;2023-11-21T03:38:57;13.00;48.80
3868;DHT22;1949;48.152;11.528;2023-11-21T03:41:23;13.00;48.70
3868;DHT22;1949;48.152;11.528;2023-11-21T03:43:48;13.00;48.70
3868;DHT22;1949;48.152;11.528;2023-11-21T03:46:14;13.00;48.80
3868;DHT22;1949;48.152;11.528;2023-11-21T03:48:40;13.10;48.80
3868;DHT22;1949;48.152;11.528;2023-11-21T03:51:07;13.10;48.70
3868;DHT22;1949;48.152;11.528;2023-11-21T03:53:33;13.10;48.60
3868;DHT22;1949;48.152;11.528;2023-11-21T03:56:02;13.10;48.70
3868;DHT22;1949;48.152;11.528;2023-11-21T03:58:29;13.10;48.70
3868;DHT22;1949;48.152;11.528;2023-11-21T04:00:55;13.10;48.60
3868;DHT22;1949;48.152;11.528;2023-11-21T04:03:20;13.10;48.70
3868;DHT22;1949;48.152;11.528;2023-11-21T04:05:47;13.10;48.60
3868;DHT22;1949;48.152;11.528;2023-11-21T04:08:13;13.20;48.80
3868;DHT22;1949;48.152;11.528;2023-11-21T04:10:38;13.20;48.80
3868;DHT22;1949;48.152;11.528;2023-11-21T04:13:05;13.20;48.80
3868;DHT22;1949;48.152;11.528;2023-11-21T04:15:32;13.30;48.90
3868;DHT22;1949;48.152;11.528;2023-11-21T04:17:58;13.30;48.70
3868;DHT22;1949;48.152;11.528;2023-11-21T04:20:24;13.30;48.70
3868;DHT22;1949;48.152;11.528;2023-11-21T04:22:51;13.30;48.70
3868;DHT22;1949;48.152;11.528;2023-11-21T04:25:17;13.30;48.50
3868;DHT22;1949;48.152;11.528;2023-11-21T04:27:43;13.30;48.50
3868;DHT22;1949;48.152;11.528;2023-11-21T04:30:11;13.20;48.60
3868;DHT22;1949;48.152;11.528;2023-11-21T04:32:37;13.20;48.60
3868;DHT22;1949;48.152;11.528;2023-11-21T04:35:03;13.20;48.60
3868;DHT22;1949;48.152;11.528;2023-11-21T04:37:29;13.20;48.70
3868;DHT22;1949;48.152;11.528;2023-11-21T04:39:55;13.20;48.60
3868;DHT22;1949;48.152;11.528;2023-11-21T04:42:20;13.20;48.60
3868;DHT22;1949;48.152;11.528;2023-11-21T04:44:47;13.20;48.50
3868;DHT22;1949;48.152;11.528;2023-11-21T04:47:13;13.20;48.50
3868;DHT22;1949;48.152;11.528;2023-11-21T04:49:42;13.10;48.60
3868;DHT22;1949;48.152;11.528;2023-11-21T04:52:08;13.10;48.60
3868;DHT22;1949;48.152;11.528;2023-11-21T04:54:35;13.10;48.60
3868;DHT22;1949;48.152;11.528;2023-11-21T04:57:01;13.00;48.60
3868;DHT22;1949;48.152;11.528;2023-11-21T04:59:27;13.00;48.60
3868;DHT22;1949;48.152;11.528;2023-11-21T05:01:53;13.00;48.70
3868;DHT22;1949;48.152;11.528;2023-11-21T05:04:20;13.00;48.80
3868;DHT22;1949;48.152;11.528;2023-11-21T05:06:48;13.00;48.80
3868;DHT22;1949;48.152;11.528;2023-11-21T05:09:14;13.00;48.90
3868;DHT22;1949;48.152;11.528;2023-11-21T05:11:41;13.00;48.80
3868;DHT22;1949;48.152;11.528;2023-11-21T05:14:06;13.00;48.90
3868;DHT22;1949;48.152;11.528;2023-11-21T05:16:33;13.00;48.80
3868;DHT22;1949;48.152;11.528;2023-11-21T05:19:01;13.10;48.90
3868;DHT22;1949;48.152;11.528;2023-11-21T05:21:27;13.10;48.90
3868;DHT22;1949;48.152;11.528;2023-11-21T05:23:55;13.10;48.90
3868;DHT22;1949;48.152;11.528;2023-11-21T05:26:20;13.10;49.00
3868;DHT22;1949;48.152;11.528;2023-11-21T05:28:46;13.10;48.90
3868;DHT22;1949;48.152;11.528;2023-11-21T05:31:11;13.10;48.80
3868;DHT22;1949;48.152;11.528;2023-11-21T05:33:37;13.00;48.80
3868;DHT22;1949;48.152;11.528;2023-11-21T05:36:03;13.00;48.90
3868;DHT22;1949;48.152;11.528;2023-11-21T05:38:30;13.00;49.00
3868;DHT22;1949;48.152;11.528;2023-11-21T05:40:55;13.00;48.90
3868;DHT22;1949;48.152;11.528;2023-11-21T05:43:21;13.00;49.00
3868;DHT22;1949;48.152;11.528;2023-11-21T05:45:49;13.00;48.70
3868;DHT22;1949;48.152;11.528;2023-11-21T05:48:19;12.90;48.70
3868;DHT22;1949;48.152;11.528;2023-11-21T05:50:46;12.80;48.90
3868;DHT22;1949;48.152;11.528;2023-11-21T05:53:13;12.80;49.10
3868;DHT22;1949;48.152;11.528;2023-11-21T05:55:41;12.80;48.90
3868;DHT22;1949;48.152;11.528;2023-11-21T05:58:08;12.80;48.90
3868;DHT22;1949;48.152;11.528;2023-11-21T06:00:34;12.80;48.90
3868;DHT22;1949;48.152;11.528;2023-11-21T06:02:59;12.70;49.00
3868;DHT22;1949;48.152;11.528;2023-11-21T06:05:26;12.80;49.00
3868;DHT22;1949;48.152;11.528;2023-11-21T06:07:53;12.70;48.90
3868;DHT22;1949;48.152;11.528;2023-11-21T06:10:21;12.70;49.00
3868;DHT22;1949;48.152;11.528;2023-11-21T06:12:46;12.70;49.10
3868;DHT22;1949;48.152;11.528;2023-11-21T06:15:12;12.70;49.10
3868;DHT22;1949;48.152;11.528;2023-11-21T06:17:42;12.70;49.00
3868;DHT22;1949;48.152;11.528;2023-11-21T06:20:09;12.70;49.10
3868;DHT22;1949;48.152;11.528;2023-11-21T06:22:37;12.80;49.20
3868;DHT22;1949;48.152;11.528;2023-11-21T06:25:03;12.80;49.30
3868;DHT22;1949;48.152;11.528;2023-11-21T06:27:39;12.90;49.30
3868;DHT22;1949;48.152;11.528;2023-11-21T06:30:06;12.90;49.20
3868;DHT22;1949;48.152;11.528;2023-11-21T06:32:32;12.90;49.10
3868;DHT22;1949;48.152;11.528;2023-11-21T06:34:58;12.90;49.00
3868;DHT22;1949;48.152;11.528;2023-11-21T06:37:28;12.90;49.00
3868;DHT22;1949;48.152;11.528;2023-11-21T06:39:54;12.90;49.10
3868;DHT22;1949;48.152;11.528;2023-11-21T06:42:22;12.90;49.00
3868;DHT22;1949;48.152;11.528;2023-11-21T06:44:49;12.80;49.10
3868;DHT22;1949;48.152;11.528;2023-11-21T06:47:17;12.90;49.20
3868;DHT22;1949;48.152;11.528;2023-11-21T06:49:56;12.90;49.10
3868;DHT22;1949;48.152;11.528;2023-11-21T06:52:21;13.00;49.20
3868;DHT22;1949;48.152;11.528;2023-11-21T06:54:53;13.00;49.00
3868;DHT22;1949;48.152;11.528;2023-11-21T06:57:18;13.00;49.00
3868;DHT22;1949;48.152;11.528;2023-11-21T06:59:46;12.90;48.70
3868;DHT22;1949;48.152;11.528;2023-11-21T07:02:13;12.90;49.00
3868;DHT22;1949;48.152;11.528;2023-11-21T07:04:40;12.90;49.00
3868;DHT22;1949;48.152;11.528;2023-11-21T07:07:07;12.80;48.90
3868;DHT22;1949;48.152;11.528;2023-11-21T07:09:33;12.90;49.10
3868;DHT22;1949;48.152;11.528;2023-11-21T07:11:58;12.80;49.00
3868;DHT22;1949;48.152;11.528;2023-11-21T07:14:25;12.80;49.00
3868;DHT22;1949;48.152;11.528;2023-11-21T07:16:50;12.80;49.00
3868;DHT22;1949;48.152;11.528;2023-11-21T07:19:18;12.80;49.10
3868;DHT22;1949;48.152;11.528;2023-11-21T07:21:43;12.80;49.00
3868;DHT22;1949;48.152;11.528;2023-11-21T07:24:09;12.70;48.90
3868;DHT22;1949;48.152;11.528;2023-11-21T07:26:36;12.70;48.80
3868;DHT22;1949;48.152;11.528;2023-11-21T07:29:05;12.70;49.50
3868;DHT22;1949;48.152;11.528;2023-11-21T07:31:31;12.60;49.10
3868;DHT22;1949;48.152;11.528;2023-11-21T07:33:59;12.60;49.10
3868;DHT22;1949;48.152;11.528;2023-11-21T07:36:26;12.60;49.20
3868;DHT22;1949;48.152;11.528;2023-11-21T07:38:53;12.60;49.20
3868;DHT22;1949;48.152;11.528;2023-11-21T07:41:18;12.70;49.20
3868;DHT22;1949;48.152;11.528;2023-11-21T07:43:45;12.70;49.00
3868;DHT22;1949;48.152;11.528;2023-11-21T07:46:12;12.60;49.00
3868;DHT22;1949;48.152;11.528;2023-11-21T07:48:49;12.70;49.10
3868;DHT22;1949;48.152;11.528;2023-11-21T07:51:15;12.60;49.20
3868;DHT22;1949;48.152;11.528;2023-11-21T07:53:43;12.70;49.20
3868;DHT22;1949;48.152;11.528;2023-11-21T07:56:10;12.60;49.30
3868;DHT22;1949;48.152;11.528;2023-11-21T07:58:37;12.70;49.40
3868;DHT22;1949;48.152;11.528;2023-11-21T08:01:03;12.80;49.50
3868;DHT22;1949;48.152;11.528;2023-11-21T08:03:29;12.90;49.40
3868;DHT22;1949;48.152;11.528;2023-11-21T08:05:59;13.00;49.20
3868;DHT22;1949;48.152;11.528;2023-11-21T08:08:25;13.00;49.20
3868;DHT22;1949;48.152;11.528;2023-11-21T08:10:51;13.00;48.90
3868;DHT22;1949;48.152;11.528;2023-11-21T08:13:24;13.00;49.00
3868;DHT22;1949;48.152;11.528;2023-11-21T08:15:50;13.00;48.90
3868;DHT22;1949;48.152;11.528;2023-11-21T08:18:16;13.00;49.00
3868;DHT22;1949;48.152;11.528;2023-11-21T08:20:43;13.00;49.10
3868;DHT22;1949;48.152;11.528;2023-11-21T08:23:11;13.00;49.00
3868;DHT22;1949;48.152;11.528;2023-11-21T08:25:37;13.00;48.90
3868;DHT22;1949;48.152;11.528;2023-11-21T08:28:02;13.00;49.00
3868;DHT22;1949;48.152;11.528;2023-11-21T08:30:29;13.00;48.90
3868;DHT22;1949;48.152;11.528;2023-11-21T08:32:55;13.00;48.90
3868;DHT22;1949;48.152;11.528;2023-11-21T08:35:24;13.00;48.80
3868;DHT22;1949;48.152;11.528;2023-11-21T08:37:53;13.00;48.90
3868;DHT22;1949;48.152;11.528;2023-11-21T08:40:19;13.00;49.00
3868;DHT22;1949;48.152;11.528;2023-11-21T08:42:46;13.00;49.00
3868;DHT22;1949;48.152;11.528;2023-11-21T08:45:16;13.00;48.80
3868;DHT22;1949;48.152;11.528;2023-11-21T08:47:43;13.00;48.90
3868;DHT22;1949;48.152;11.528;2023-11-21T08:50:12;13.00;48.90
3868;DHT22;1949;48.152;11.528;2023-11-21T08:52:41;13.00;49.00
3868;DHT22;1949;48.152;11.528;2023-11-21T08:55:08;13.00;48.90
3868;DHT22;1949;48.152;11.528;2023-11-21T08:57:35;13.00;49.00
3868;DHT22;1949;48.152;11.528;2023-11-21T09:00:04;13.00;49.00
3868;DHT22;1949;48.152;11.528;2023-11-21T09:02:35;13.00;48.90
3868;DHT22;1949;48.152;11.528;2023-11-21T09:05:03;13.10;49.20
3868;DHT22;1949;48.152;11.528;2023-11-21T09:07:30;13.10;49.00
3868;DHT22;1949;48.152;11.528;2023-11-21T09:09:56;13.20;48.90
3868;DHT22;1949;48.152;11.528;2023-11-21T09:12:21;13.10;48.80
3868;DHT22;1949;48.152;11.528;2023-11-21T09:14:48;13.10;48.80
3868;DHT22;1949;48.152;11.528;2023-11-21T09:17:17;13.10;48.80
3868;DHT22;1949;48.152;11.528;2023-11-21T09:19:43;13.00;48.80
3868;DHT22;1949;48.152;11.528;2023-11-21T09:22:15;13.00;49.00
3868;DHT22;1949;48.152;11.528;2023-11-21T09:24:42;13.10;49.10
3868;DHT22;1949;48.152;11.528;2023-11-21T09:27:08;13.10;48.90
3868;DHT22;1949;48.152;11.528;2023-11-21T09:29:35;13.10;49.00
3868;DHT22;1949;48.152;11.528;2023-11-21T09:32:01;13.10;49.10
3868;DHT22;1949;48.152;11.528;2023-11-21T09:34:27;13.10;49.10
3868;DHT22;1949;48.152;11.528;2023-11-21T09:36:53;13.10;49.10
3868;DHT22;1949;48.152;11.528;2023-11-21T09:39:19;13.20;49.20
3868;DHT22;1949;48.152;11.528;2023-11-21T09:42:23;13.20;49.20
3868;DHT22;1949;48.152;11.528;2023-11-21T09:45:23;13.30;49.30
3868;DHT22;1949;48.152;11.528;2023-11-21T09:47:56;13.40;49.10
3868;DHT22;1949;48.152;11.528;2023-11-21T09:50:25;13.40;48.80
3868;DHT22;1949;48.152;11.528;2023-11-21T09:53:17;13.30;48.90
3868;DHT22;1949;48.152;11.528;2023-11-21T09:55:45;13.30;49.00
3868;DHT22;1949;48.152;11.528;2023-11-21T09:58:13;13.40;49.30
3868;DHT22;1949;48.152;11.528;2023-11-21T10:00:42;13.40;49.30
3868;DHT22;1949;48.152;11.528;2023-11-21T10:03:09;13.50;49.20
3868;DHT22;1949;48.152;11.528;2023-11-21T10:05:36;13.50;49.10
3868;DHT22;1949;48.152;11.528;2023-11-21T10:08:09;13.50;49.10
3868;DHT22;1949;48.152;11.528;2023-11-21T10:10:37;13.60;49.10
3868;DHT22;1949;48.152;11.528;2023-11-21T10:13:07;13.60;49.10
3868;DHT22;1949;48.152;11.528;2023-11-21T10:15:36;13.70;49.00
3868;DHT22;1949;48.152;11.528;2023-11-21T10:18:06;13.70;48.90
3868;DHT22;1949;48.152;11.528;2023-11-21T10:20:34;13.70;49.00
3868;DHT22;1949;48.152;11.528;2023-11-21T10:23:01;13.70;49.00
3868;DHT22;1949;48.152;11.528;2023-11-21T10:25:28;13.60;48.90
3868;DHT22;1949;48.152;11.528;2023-11-21T10:28:02;13.70;49.00
3868;DHT22;1949;48.152;11.528;2023-11-21T10:30:38;13.70;49.60
3868;DHT22;1949;48.152;11.528;2023-11-21T10:33:05;13.70;49.00
3868;DHT22;1949;48.152;11.528;2023-11-21T10:35:44;13.70;49.00
3868;DHT22;1949;48.152;11.528;2023-11-21T10:38:19;13.70;48.90
3868;DHT22;1949;48.152;11.528;2023-11-21T10:40:48;13.70;48.80
3868;DHT22;1949;48.152;11.528;2023-11-21T10:43:15;13.70;48.80
3868;DHT22;1949;48.152;11.528;2023-11-21T10:45:41;13.70;48.90
3868;DHT22;1949;48.152;11.528;2023-11-21T10:48:12;13.60;48.90
3868;DHT22;1949;48.152;11.528;2023-11-21T10:50:43;13.60;49.10
3868;DHT22;1949;48.152;11.528;2023-11-21T10:53:09;13.60;49.10
3868;DHT22;1949;48.152;11.528;2023-11-21T10:55:37;13.60;49.00
3868;DHT22;1949;48.152;11.528;2023-11-21T10:58:04;13.70;49.10
3868;DHT22;1949;48.152;11.528;2023-11-21T11:00:36;13.70;49.90
3868;DHT22;1949;48.152;11.528;2023-11-21T11:03:03;13.70;49.10
3868;DHT22;1949;48.152;11.528;2023-11-21T11:05:29;13.80;49.20
3868;DHT22;1949;48.152;11.528;2023-11-21T11:08:08;13.80;49.20
3868;DHT22;1949;48.152;11.528;2023-11-21T11:10:36;13.80;49.10
3868;DHT22;1949;48.152;11.528;2023-11-21T11:13:03;13.90;49.20
3868;DHT22;1949;48.152;11.528;2023-11-21T11:15:29;14.00;49.40
3868;DHT22;1949;48.152;11.528;2023-11-21T11:17:55;14.00;49.10
3868;DHT22;1949;48.152;11.528;2023-11-21T11:20:29;14.10;49.10
3868;DHT22;1949;48.152;11.528;2023-11-21T11:28:17;14.10;48.90
3868;DHT22;1949;48.152;11.528;2023-11-21T11:36:29;14.10;48.90
3868;DHT22;1949;48.152;11.528;2023-11-21T11:38:56;14.10;48.90
3868;DHT22;1949;48.152;11.528;2023-11-21T11:41:31;14.20;49.00
3868;DHT22;1949;48.152;11.528;2023-11-21T11:44:02;14.20;48.80
3868;DHT22;1949;48.152;11.528;2023-11-21T11:46:43;14.10;48.90
3868;DHT22;1949;48.152;11.528;2023-11-21T11:49:10;14.20;48.90
3868;DHT22;1949;48.152;11.528;2023-11-21T11:51:48;14.20;48.90
3868;DHT22;1949;48.152;11.528;2023-11-21T11:54:14;14.20;48.90
3868;DHT22;1949;48.152;11.528;2023-11-21T11:56:39;14.20;48.80
3868;DHT22;1949;48.152;11.528;2023-11-21T11:59:05;14.20;48.90
3868;DHT22;1949;48.152;11.528;2023-11-21T12:01:35;14.20;49.00
3868;DHT22;1949;48.152;11.528;2023-11-21T12:06:52;14.30;48.80
3868;DHT22;1949;48.152;11.528;2023-11-21T12:09:20;14.30;48.80
3868;DHT22;1949;48.152;11.528;2023-11-21T12:11:48;14.30;49.30
3868;DHT22;1949;48.152;11.528;2023-11-21T12:14:14;14.20;48.60
3868;DHT22;1949;48.152;11.528;2023-11-21T12:16:42;14.20;48.70
3868;DHT22;1949;48.152;11.528;2023-11-21T12:19:12;14.20;48.80
3868;DHT22;1949;48.152;11.528;2023-11-21T12:21:38;14.30;49.00
3868;DHT22;1949;48.152;11.528;2023-11-21T12:24:07;14.40;49.00
3868;DHT22;1949;48.152;11.528;2023-11-21T12:26:37;14.40;48.90
3868;DHT22;1949;48.152;11.528;2023-11-21T12:29:02;14.40;48.70
3868;DHT22;1949;48.152;11.528;2023-11-21T12:31:30;14.50;48.70
3868;DHT22;1949;48.152;11.528;2023-11-21T12:33:56;14.50;48.70
3868;DHT22;1949;48.152;11.528;2023-11-21T12:36:23;14.50;48.60
3868;DHT22;1949;48.152;11.528;2023-11-21T12:38:49;14.50;49.10
3868;DHT22;1949;48.152;11.528;2023-11-21T12:41:16;14.50;48.50
3868;DHT22;1949;48.152;11.528;2023-11-21T12:43:43;14.40;48.40
3868;DHT22;1949;48.152;11.528;2023-11-21T12:46:10;14.40;48.60
3868;DHT22;1949;48.152;11.528;2023-11-21T12:48:41;14.40;48.60
3868;DHT22;1949;48.152;11.528;2023-11-21T12:51:11;14.40;48.80
3868;DHT22;1949;48.152;11.528;2023-11-21T12:53:38;14.30;48.70
3868;DHT22;1949;48.152;11.528;2023-11-21T12:56:13;14.30;48.60
3868;DHT22;1949;48.152;11.528;2023-11-21T12:58:44;14.30;48.80
3868;DHT22;1949;48.152;11.528;2023-11-21T13:01:13;14.20;49.00
3868;DHT22;1949;48.152;11.528;2023-11-21T13:03:46;14.20;49.10
3868;DHT22;1949;48.152;11.528;2023-11-21T13:06:17;14.20;49.20
3868;DHT22;1949;48.152;11.528;2023-11-21T13:08:44;14.30;49.20
3868;DHT22;1949;48.152;11.528;2023-11-21T13:11:11;14.30;49.20
3868;DHT22;1949;48.152;11.528;2023-11-21T13:13:41;14.30;49.30
3868;DHT22;1949;48.152;11.528;2023-11-21T13:16:07;14.30;49.40
3868;DHT22;1949;48.152;11.528;2023-11-21T13:18:33;14.40;49.40
3868;DHT22;1949;48.152;11.528;2023-11-21T13:21:02;14.40;49.40
3868;DHT22;1949;48.152;11.528;2023-11-21T13:23:39;14.40;49.40
3868;DHT22;1949;48.152;11.528;2023-11-21T13:26:07;14.50;49.60
3868;DHT22;1949;48.152;11.528;2023-11-21T13:28:35;14.50;49.50
3868;DHT22;1949;48.152;11.528;2023-11-21T13:31:01;14.50;49.50
3868;DHT22;1949;48.152;11.528;2023-11-21T13:33:47;14.60;49.60
3868;DHT22;1949;48.152;11.528;2023-11-21T13:36:23;14.60;49.60
3868;DHT22;1949;48.152;11.528;2023-11-21T13:38:50;14.60;49.50
3868;DHT22;1949;48.152;11.528;2023-11-21T13:41:18;14.70;49.50
3868;DHT22;1949;48.152;11.528;2023-11-21T13:43:44;14.60;49.30
3868;DHT22;1949;48.152;11.528;2023-11-21T13:46:19;14.60;49.30
3868;DHT22;1949;48.152;11.528;2023-11-21T13:48:48;14.60;49.30
3868;DHT22;1949;48.152;11.528;2023-11-21T13:51:20;14.60;49.40
3868;DHT22;1949;48.152;11.528;2023-11-21T13:53:56;14.50;49.10
3868;DHT22;1949;48.152;11.528;2023-11-21T13:56:21;14.50;49.20
3868;DHT22;1949;48.152;11.528;2023-11-21T13:58:51;14.40;49.10
3868;DHT22;1949;48.152;11.528;2023-11-21T14:01:22;14.40;49.10
3868;DHT22;1949;48.152;11.528;2023-11-21T14:03:54;14.30;49.20
3868;DHT22;1949;48.152;11.528;2023-11-21T14:06:27;14.30;49.40
3868;DHT22;1949;48.152;11.528;2023-11-21T14:09:01;14.30;49.50
3868;DHT22;1949;48.152;11.528;2023-11-21T14:11:31;14.30;49.50
3868;DHT22;1949;48.152;11.528;2023-11-21T14:13:57;14.30;49.40
3868;DHT22;1949;48.152;11.528;2023-11-21T14:16:25;14.40;49.50
3868;DHT22;1949;48.152;11.528;2023-11-21T14:18:50;14.30;49.40
3868;DHT22;1949;48.152;11.528;2023-11-21T14:21:29;14.30;49.40
3868;DHT22;1949;48.152;11.528;2023-11-21T14:23:55;14.40;49.50
3868;DHT22;1949;48.152;11.528;2023-11-21T14:26:21;14.40;49.50
3868;DHT22;1949;48.152;11.528;2023-11-21T14:28:48;14.30;49.40
3868;DHT22;1949;48.152;11.528;2023-11-21T14:31:14;14.30;49.40
3868;DHT22;1949;48.152;11.528;2023-11-21T14:33:44;14.30;49.50
3868;DHT22;1949;48.152;11.528;2023-11-21T14:36:10;14.30;49.50
3868;DHT22;1949;48.152;11.528;2023-11-21T14:38:37;14.30;49.60
3868;DHT22;1949;48.152;11.528;2023-11-21T14:41:07;14.30;49.60
3868;DHT22;1949;48.152;11.528;2023-11-21T14:43:35;14.30;49.50
3868;DHT22;1949;48.152;11.528;2023-11-21T14:46:02;14.20;49.30
3868;DHT22;1949;48.152;11.528;2023-11-21T14:48:29;14.20;49.30
3868;DHT22;1949;48.152;11.528;2023-11-21T14:51:15;14.20;49.30
3868;DHT22;1949;48.152;11.528;2023-11-21T14:53:41;14.10;49.30
3868;DHT22;1949;48.152;11.528;2023-11-21T14:56:22;14.10;49.40
3868;DHT22;1949;48.152;11.528;2023-11-21T14:58:57;14.10;49.50
3868;DHT22;1949;48.152;11.528;2023-11-21T15:01:24;14.10;49.50
3868;DHT22;1949;48.152;11.528;2023-11-21T15:04:08;14.10;49.40
3868;DHT22;1949;48.152;11.528;2023-11-21T15:06:40;14.10;49.50
3868;DHT22;1949;48.152;11.528;2023-11-21T15:09:08;14.10;49.40
3868;DHT22;1949;48.152;11.528;2023-11-21T15:11:34;14.10;49.50
3868;DHT22;1949;48.152;11.528;2023-11-21T15:14:03;14.10;49.50
3868;DHT22;1949;48.152;11.528;2023-11-21T15:16:38;14.10;49.50
3868;DHT22;1949;48.152;11.528;2023-11-21T15:19:07;14.00;49.50
3868;DHT22;1949;48.152;11.528;2023-11-21T15:21:35;14.10;49.70
3868;DHT22;1949;48.152;11.528;2023-11-21T15:24:02;14.10;49.70
3868;DHT22;1949;48.152;11.528;2023-11-21T15:26:28;14.00;49.60
3868;DHT22;1949;48.152;11.528;2023-11-21T15:28:54;14.00;49.70
3868;DHT22;1949;48.152;11.528;2023-11-21T15:31:20;14.00;49.70
3868;DHT22;1949;48.152;11.528;2023-11-21T15:33:51;14.00;49.80
3868;DHT22;1949;48.152;11.528;2023-11-21T15:36:17;14.00;49.70
3868;DHT22;1949;48.152;11.528;2023-11-21T15:38:45;14.10;49.80
3868;DHT22;1949;48.152;11.528;2023-11-21T15:41:10;14.10;49.90
3868;DHT22;1949;48.152;11.528;2023-11-21T15:43:37;14.10;49.80
3868;DHT22;1949;48.152;11.528;2023-11-21T15:46:03;14.20;49.90
3868;DHT22;1949;48.152;11.528;2023-11-21T15:48:36;14.20;49.90
3868;DHT22;1949;48.152;11.528;2023-11-21T15:51:06;14.20;49.60
3868;DHT22;1949;48.152;11.528;2023-11-21T15:53:33;14.20;49.50
3868;DHT22;1949;48.152;11.528;2023-11-21T15:56:00;14.20;49.60
3868;DHT22;1949;48.152;11.528;2023-11-21T15:58:27;14.20;49.50
3868;DHT22;1949;48.152;11.528;2023-11-21T16:00:54;14.10;49.50
3868;DHT22;1949;48.152;11.528;2023-11-21T16:03:22;14.10;49.50